createdAt,value
2022-12-03T00:00:24.745Z,1.21
2022-12-03T00:01:27.493Z,1.28
2022-12-03T00:02:30.241Z,1.21
2022-12-03T00:03:36.135Z,1.23
2022-12-03T00:04:38.968Z,1.20
2022-12-03T00:05:48.205Z,1.17
2022-12-03T00:06:51.740Z,1.11
2022-12-03T00:07:54.582Z,1.12
2022-12-03T00:08:57.248Z,1.17
2022-12-03T00:09:59.877Z,1.07
2022-12-03T00:11:02.692Z,1.11
2022-12-03T00:12:05.632Z,1.07
2022-12-03T00:13:08.589Z,1.04
2022-12-03T00:14:11.404Z,1.05
2022-12-03T00:15:14.132Z,1.02
2022-12-03T00:16:16.967Z,1.06
2022-12-03T00:17:19.913Z,1.20
2022-12-03T00:18:22.575Z,1.21
2022-12-03T00:19:25.265Z,1.23
2022-12-03T00:20:27.922Z,1.24
2022-12-03T00:21:30.613Z,1.23
2022-12-03T00:22:33.277Z,1.19
2022-12-03T00:23:41.745Z,1.15
2022-12-03T00:24:46.022Z,1.21
2022-12-03T00:25:48.780Z,1.05
2022-12-03T00:26:51.474Z,1.07
2022-12-03T00:27:54.301Z,0.99
2022-12-03T00:28:57.948Z,1.08
2022-12-03T00:30:00.530Z,1.09
2022-12-03T00:31:03.262Z,1.05
2022-12-03T00:32:06.513Z,1.14
2022-12-03T00:33:09.209Z,1.23
2022-12-03T00:34:12.250Z,1.11
2022-12-03T00:35:14.903Z,1.12
2022-12-03T00:36:18.288Z,1.21
2022-12-03T00:37:21.061Z,1.24
2022-12-03T00:38:23.731Z,1.22
2022-12-03T00:39:26.514Z,1.14
2022-12-03T00:40:29.061Z,1.17
2022-12-03T00:41:31.651Z,1.17
2022-12-03T00:42:34.370Z,1.22
2022-12-03T00:43:36.930Z,1.26
2022-12-03T00:44:39.610Z,1.36
2022-12-03T00:45:42.228Z,1.32
2022-12-03T00:46:45.541Z,1.20
2022-12-03T00:47:49.038Z,1.28
2022-12-03T00:48:51.926Z,1.30
2022-12-03T00:49:54.895Z,1.29
2022-12-03T00:50:57.498Z,1.28
2022-12-03T00:52:01.669Z,1.19
2022-12-03T00:53:04.377Z,1.29
2022-12-03T00:54:07.393Z,1.32
2022-12-03T00:55:10.239Z,1.28
2022-12-03T00:56:13.210Z,1.30
2022-12-03T00:57:15.972Z,1.30
2022-12-03T00:58:19.181Z,1.31
2022-12-03T00:59:22.005Z,1.31
2022-12-03T01:00:25.550Z,1.27
2022-12-03T01:01:28.492Z,1.43
2022-12-03T01:02:31.576Z,1.32
2022-12-03T01:03:34.643Z,1.26
2022-12-03T01:04:37.847Z,1.26
2022-12-03T01:05:40.490Z,1.26
2022-12-03T01:06:43.620Z,1.33
2022-12-03T01:07:47.067Z,1.39
2022-12-03T01:08:49.996Z,1.28
2022-12-03T01:09:52.894Z,1.31
2022-12-03T01:10:55.621Z,1.23
2022-12-03T01:11:58.312Z,1.28
2022-12-03T01:13:00.976Z,1.29
2022-12-03T01:14:08.759Z,1.18
2022-12-03T01:15:12.084Z,1.10
2022-12-03T01:16:14.783Z,1.22
2022-12-03T01:17:17.537Z,1.22
2022-12-03T01:18:21.311Z,1.23
2022-12-03T01:19:24.649Z,1.24
2022-12-03T01:20:27.894Z,1.21
2022-12-03T01:21:31.117Z,1.26
2022-12-03T01:22:33.866Z,1.27
2022-12-03T01:23:36.611Z,1.22
2022-12-03T01:24:39.172Z,1.25
2022-12-03T01:25:41.889Z,1.19
2022-12-03T01:26:45.171Z,1.16
2022-12-03T01:27:47.764Z,1.16
2022-12-03T01:28:50.453Z,1.08
2022-12-03T01:29:53.155Z,1.14
2022-12-03T01:31:14.563Z,1.08
2022-12-03T01:32:17.498Z,1.18
2022-12-03T01:33:20.370Z,1.18
2022-12-03T01:34:23.010Z,1.12
2022-12-03T01:35:25.653Z,1.26
2022-12-03T01:36:29.389Z,1.27
2022-12-03T01:37:32.134Z,1.31
2022-12-03T01:38:34.767Z,1.33
2022-12-03T01:39:37.423Z,1.22
2022-12-03T01:40:40.155Z,1.28
2022-12-03T01:41:42.842Z,1.20
2022-12-03T01:42:45.639Z,1.21
2022-12-03T01:43:50.247Z,1.28
2022-12-03T01:44:56.291Z,1.36
2022-12-03T01:45:59.064Z,1.23
2022-12-03T01:47:06.636Z,1.27
2022-12-03T01:48:12.899Z,1.35
2022-12-03T01:49:25.566Z,1.44
2022-12-03T01:50:32.931Z,1.41
2022-12-03T01:51:35.725Z,1.41
2022-12-03T01:52:39.629Z,1.23
2022-12-03T01:53:44.033Z,1.19
2022-12-03T01:54:51.457Z,1.26
2022-12-03T01:55:54.386Z,1.21
2022-12-03T01:56:57.179Z,1.21
2022-12-03T01:58:02.169Z,1.19
2022-12-03T01:59:05.168Z,1.25
2022-12-03T02:00:13.248Z,1.24
2022-12-03T02:01:18.371Z,1.37
2022-12-03T02:02:25.291Z,1.36
2022-12-03T02:03:27.981Z,1.27
2022-12-03T02:04:31.014Z,1.18
2022-12-03T02:05:34.708Z,1.25
2022-12-03T02:06:37.584Z,1.28
2022-12-03T02:07:40.363Z,1.21
2022-12-03T02:08:44.057Z,1.26
2022-12-03T02:09:46.767Z,1.26
2022-12-03T02:10:49.473Z,1.26
2022-12-03T02:11:52.532Z,1.24
2022-12-03T02:13:08.101Z,1.23
2022-12-03T02:14:21.067Z,1.23
2022-12-03T02:15:24.183Z,1.18
2022-12-03T02:16:27.039Z,1.24
2022-12-03T02:17:29.908Z,1.10
2022-12-03T02:18:32.604Z,1.14
2022-12-03T02:19:36.011Z,1.11
2022-12-03T02:21:04.362Z,1.11
2022-12-03T02:22:12.721Z,1.14
2022-12-03T02:23:30.971Z,1.24
2022-12-03T02:25:00.211Z,1.25
2022-12-03T02:26:03.010Z,1.14
2022-12-03T02:27:05.732Z,0.94
2022-12-03T02:28:09.892Z,1.02
2022-12-03T02:29:12.688Z,1.09
2022-12-03T02:30:19.976Z,1.12
2022-12-03T02:31:23.773Z,1.07
2022-12-03T02:32:26.535Z,0.99
2022-12-03T02:33:29.248Z,1.14
2022-12-03T02:34:41.612Z,1.08
2022-12-03T02:35:45.010Z,1.08
2022-12-03T02:36:47.811Z,1.20
2022-12-03T02:37:56.290Z,1.31
2022-12-03T02:38:59.124Z,1.22
2022-12-03T02:40:09.494Z,1.13
2022-12-03T02:41:35.380Z,1.09
2022-12-03T02:42:39.026Z,1.12
2022-12-03T02:43:41.704Z,1.18
2022-12-03T02:44:44.808Z,1.22
2022-12-03T02:45:52.345Z,1.17
2022-12-03T02:46:55.154Z,1.06
2022-12-03T02:48:01.491Z,1.12
2022-12-03T02:49:06.170Z,1.11
2022-12-03T02:50:11.168Z,1.10
2022-12-03T02:51:13.924Z,1.10
2022-12-03T02:52:16.858Z,1.22
2022-12-03T02:53:24.866Z,1.17
2022-12-03T02:54:27.627Z,1.05
2022-12-03T02:55:36.827Z,1.02
2022-12-03T02:56:40.304Z,1.12
2022-12-03T02:57:46.060Z,1.13
2022-12-03T02:58:52.130Z,1.17
2022-12-03T02:59:55.523Z,1.24
2022-12-03T03:00:59.825Z,1.25
2022-12-03T03:02:02.647Z,1.17
2022-12-03T03:03:08.177Z,1.06
2022-12-03T03:04:10.914Z,1.02
2022-12-03T03:05:15.652Z,1.04
2022-12-03T03:06:19.657Z,1.13
2022-12-03T03:07:22.730Z,1.10
2022-12-03T03:08:25.940Z,1.14
2022-12-03T03:09:28.747Z,1.20
2022-12-03T03:10:34.490Z,1.28
2022-12-03T03:11:37.218Z,1.23
2022-12-03T03:12:40.237Z,1.18
2022-12-03T03:13:43.362Z,1.21
2022-12-03T03:14:45.995Z,1.24
2022-12-03T03:15:48.856Z,1.23
2022-12-03T03:16:56.382Z,1.23
2022-12-03T03:17:59.290Z,1.26
2022-12-03T03:19:02.618Z,1.21
2022-12-03T03:20:07.594Z,1.23
2022-12-03T03:21:10.530Z,1.27
2022-12-03T03:22:13.392Z,1.18
2022-12-03T03:23:19.631Z,1.22
2022-12-03T03:24:23.584Z,1.19
2022-12-03T03:25:26.156Z,1.11
2022-12-03T03:26:29.030Z,1.12
2022-12-03T03:27:32.753Z,1.19
2022-12-03T03:28:39.276Z,1.40
2022-12-03T03:29:42.216Z,1.18
2022-12-03T03:30:45.322Z,1.14
2022-12-03T03:31:48.612Z,1.05
2022-12-03T03:32:51.359Z,1.00
2022-12-03T03:33:54.235Z,0.98
2022-12-03T03:34:57.558Z,1.17
2022-12-03T03:36:01.240Z,1.13
2022-12-03T03:37:03.976Z,1.14
2022-12-03T03:38:08.554Z,1.20
2022-12-03T03:39:11.853Z,1.08
2022-12-03T03:40:14.644Z,1.10
2022-12-03T03:41:19.465Z,1.22
2022-12-03T03:42:22.967Z,1.17
2022-12-03T03:43:26.178Z,1.13
2022-12-03T03:44:29.385Z,1.30
2022-12-03T03:45:32.294Z,1.34
2022-12-03T03:46:37.189Z,1.24
2022-12-03T03:47:40.572Z,1.23
2022-12-03T03:48:44.240Z,1.30
2022-12-03T03:49:48.296Z,1.21
2022-12-03T03:50:52.149Z,1.31
2022-12-03T03:51:55.514Z,1.41
2022-12-03T03:53:00.852Z,1.26
2022-12-03T03:54:05.951Z,1.28
2022-12-03T03:55:10.851Z,1.40
2022-12-03T03:56:14.646Z,1.19
2022-12-03T03:57:17.484Z,1.07
2022-12-03T03:58:20.135Z,1.08
2022-12-03T03:59:23.368Z,1.25
2022-12-03T04:00:26.331Z,1.22
2022-12-03T04:01:29.792Z,1.20
2022-12-03T04:02:33.245Z,1.17
2022-12-03T04:03:35.936Z,1.25
2022-12-03T04:04:38.643Z,1.17
2022-12-03T04:05:41.573Z,1.11
2022-12-03T04:06:44.251Z,1.14
2022-12-03T04:07:47.393Z,1.16
2022-12-03T04:08:50.088Z,1.26
2022-12-03T04:09:52.808Z,1.23
2022-12-03T04:11:14.060Z,1.19
2022-12-03T04:12:35.329Z,1.14
2022-12-03T04:13:38.249Z,1.07
2022-12-03T04:14:40.849Z,1.10
2022-12-03T04:15:43.648Z,1.11
2022-12-03T04:16:46.322Z,1.26
2022-12-03T04:18:09.930Z,1.30
2022-12-03T04:19:12.633Z,1.26
2022-12-03T04:20:15.964Z,1.27
2022-12-03T04:21:39.611Z,1.31
2022-12-03T04:22:42.188Z,1.29
2022-12-03T04:23:45.032Z,1.19
2022-12-03T04:24:47.832Z,1.24
2022-12-03T04:26:09.025Z,1.14
2022-12-03T04:27:38.333Z,1.00
2022-12-03T04:28:50.350Z,1.03
2022-12-03T04:29:53.007Z,1.07
2022-12-03T04:30:55.819Z,1.17
2022-12-03T04:32:17.091Z,1.09
2022-12-03T04:33:38.264Z,1.00
2022-12-03T04:34:59.462Z,1.11
2022-12-03T04:36:02.145Z,1.16
2022-12-03T04:37:05.313Z,1.36
2022-12-03T04:38:08.055Z,1.33
2022-12-03T04:39:10.957Z,1.26
2022-12-03T04:40:32.036Z,1.24
2022-12-03T04:41:34.523Z,1.29
2022-12-03T04:42:37.124Z,1.27
2022-12-03T04:43:59.844Z,1.16
2022-12-03T04:45:02.535Z,1.29
2022-12-03T04:46:05.824Z,1.26
2022-12-03T04:47:16.985Z,1.30
2022-12-03T04:48:19.840Z,1.42
2022-12-03T04:49:23.144Z,1.46
2022-12-03T04:50:25.726Z,1.52
2022-12-03T04:51:28.529Z,1.46
2022-12-03T04:52:31.247Z,1.35
2022-12-03T04:53:36.210Z,1.37
2022-12-03T04:54:39.627Z,1.44
2022-12-03T04:55:42.448Z,1.58
2022-12-03T04:56:45.650Z,1.46
2022-12-03T04:57:48.311Z,1.29
2022-12-03T04:58:50.954Z,1.31
2022-12-03T04:59:53.690Z,1.18
2022-12-03T05:00:56.852Z,1.25
2022-12-03T05:01:59.884Z,1.29
2022-12-03T05:03:02.677Z,1.32
2022-12-03T05:04:05.584Z,1.25
2022-12-03T05:05:08.804Z,1.19
2022-12-03T05:06:11.705Z,1.19
2022-12-03T05:07:14.581Z,1.41
2022-12-03T05:08:17.280Z,1.40
2022-12-03T05:09:20.069Z,1.37
2022-12-03T05:10:22.970Z,1.45
2022-12-03T05:11:25.811Z,1.29
2022-12-03T05:12:28.568Z,1.41
2022-12-03T05:13:31.305Z,1.44
2022-12-03T05:14:33.929Z,1.40
2022-12-03T05:15:36.651Z,1.41
2022-12-03T05:16:39.791Z,1.33
2022-12-03T05:17:42.486Z,1.33
2022-12-03T05:18:45.324Z,1.23
2022-12-03T05:20:07.145Z,1.18
2022-12-03T05:21:09.825Z,1.32
2022-12-03T05:22:12.615Z,1.31
2022-12-03T05:23:15.436Z,1.48
2022-12-03T05:24:18.088Z,1.42
2022-12-03T05:25:20.634Z,1.38
2022-12-03T05:26:23.230Z,1.36
2022-12-03T05:27:26.186Z,1.37
2022-12-03T05:28:28.966Z,1.21
2022-12-03T05:29:31.713Z,1.35
2022-12-03T05:30:34.872Z,1.38
2022-12-03T05:31:37.518Z,1.35
2022-12-03T05:32:40.407Z,1.37
2022-12-03T05:33:44.554Z,1.37
2022-12-03T05:34:47.767Z,1.31
2022-12-03T05:35:50.483Z,1.33
2022-12-03T05:36:53.072Z,1.41
2022-12-03T05:37:55.952Z,1.40
2022-12-03T05:38:58.714Z,1.46
2022-12-03T05:40:01.866Z,1.34
2022-12-03T05:41:25.271Z,1.28
2022-12-03T05:42:47.024Z,1.34
2022-12-03T05:43:49.736Z,1.34
2022-12-03T05:44:53.208Z,1.51
2022-12-03T05:45:56.409Z,1.50
2022-12-03T05:46:59.275Z,1.54
2022-12-03T05:48:03.246Z,1.58
2022-12-03T05:49:05.995Z,1.28
2022-12-03T05:50:08.873Z,1.34
2022-12-03T05:51:11.742Z,1.28
2022-12-03T05:52:14.464Z,1.26
2022-12-03T05:53:17.750Z,1.19
2022-12-03T05:54:20.432Z,1.25
2022-12-03T05:55:23.150Z,1.12
2022-12-03T05:56:25.968Z,1.19
2022-12-03T05:57:28.701Z,1.19
2022-12-03T05:58:31.387Z,1.31
2022-12-03T05:59:34.593Z,1.21
2022-12-03T06:00:42.533Z,1.21
2022-12-03T06:01:45.940Z,1.26
2022-12-03T06:02:48.746Z,1.15
2022-12-03T06:03:51.618Z,1.17
2022-12-03T06:04:54.619Z,1.35
2022-12-03T06:05:57.589Z,1.46
2022-12-03T06:07:00.538Z,1.39
2022-12-03T06:08:03.585Z,1.47
2022-12-03T06:09:07.139Z,1.56
2022-12-03T06:10:12.381Z,1.60
2022-12-03T06:11:14.968Z,1.62
2022-12-03T06:12:17.700Z,1.58
2022-12-03T06:13:20.309Z,1.60
2022-12-03T06:14:22.973Z,1.70
2022-12-03T06:15:25.609Z,1.71
2022-12-03T06:16:28.367Z,1.58
2022-12-03T06:17:31.121Z,1.60
2022-12-03T06:18:33.901Z,1.64
2022-12-03T06:19:36.652Z,1.71
2022-12-03T06:20:39.307Z,1.81
2022-12-03T06:21:41.937Z,1.57
2022-12-03T06:22:45.084Z,1.67
2022-12-03T06:23:47.832Z,1.67
2022-12-03T06:24:50.920Z,1.69
2022-12-03T06:25:53.738Z,1.71
2022-12-03T06:26:56.458Z,1.66
2022-12-03T06:27:59.119Z,1.68
2022-12-03T06:29:01.872Z,1.73
2022-12-03T06:30:08.990Z,1.63
2022-12-03T06:31:11.724Z,1.76
2022-12-03T06:32:14.364Z,1.67
2022-12-03T06:33:17.108Z,1.66
2022-12-03T06:34:20.109Z,1.64
2022-12-03T06:35:22.914Z,1.57
2022-12-03T06:36:27.891Z,1.50
2022-12-03T06:37:30.649Z,1.50
2022-12-03T06:38:33.344Z,1.52
2022-12-03T06:39:36.183Z,1.61
2022-12-03T06:40:38.963Z,1.65
2022-12-03T06:41:41.884Z,1.82
2022-12-03T06:42:44.816Z,1.89
2022-12-03T06:43:47.628Z,1.85
2022-12-03T06:44:50.263Z,1.79
2022-12-03T06:45:53.148Z,1.83
2022-12-03T06:46:55.959Z,1.82
2022-12-03T06:47:58.713Z,1.81
2022-12-03T06:49:01.787Z,1.88
2022-12-03T06:50:06.451Z,1.85
2022-12-03T06:51:09.051Z,1.84
2022-12-03T06:52:11.820Z,1.82
2022-12-03T06:53:14.408Z,1.86
2022-12-03T06:54:17.171Z,1.85
2022-12-03T06:55:19.850Z,1.88
2022-12-03T06:56:22.817Z,1.93
2022-12-03T06:57:25.666Z,1.90
2022-12-03T06:58:28.397Z,1.71
2022-12-03T06:59:34.422Z,1.84
2022-12-03T07:00:37.115Z,1.79
2022-12-03T07:01:40.628Z,1.79
2022-12-03T07:02:44.856Z,1.78
2022-12-03T07:03:47.974Z,1.82
2022-12-03T07:04:50.612Z,1.83
2022-12-03T07:05:53.211Z,1.82
2022-12-03T07:06:55.967Z,1.98
2022-12-03T07:07:58.690Z,1.96
2022-12-03T07:09:01.250Z,2.00
2022-12-03T07:10:04.735Z,1.99
2022-12-03T07:11:30.566Z,2.13
2022-12-03T07:12:33.445Z,2.03
2022-12-03T07:13:36.105Z,2.14
2022-12-03T07:14:38.841Z,2.09
2022-12-03T07:15:41.493Z,2.09
2022-12-03T07:16:44.625Z,2.07
2022-12-03T07:17:47.407Z,2.12
2022-12-03T07:18:50.690Z,1.99
2022-12-03T07:19:53.923Z,2.12
2022-12-03T07:20:56.579Z,2.25
2022-12-03T07:21:59.290Z,2.15
2022-12-03T07:23:01.926Z,2.06
2022-12-03T07:24:05.753Z,1.94
2022-12-03T07:25:08.892Z,1.82
2022-12-03T07:26:11.463Z,1.83
2022-12-03T07:27:14.022Z,1.87
2022-12-03T07:28:16.770Z,1.90
2022-12-03T07:29:19.504Z,1.95
2022-12-03T07:30:23.746Z,1.90
2022-12-03T07:31:26.470Z,1.84
2022-12-03T07:32:29.350Z,2.02
2022-12-03T07:33:32.578Z,2.01
2022-12-03T07:34:35.366Z,1.95
2022-12-03T07:35:38.074Z,2.06
2022-12-03T07:36:40.696Z,2.01
2022-12-03T07:37:43.595Z,2.01
2022-12-03T07:38:46.371Z,2.08
2022-12-03T07:39:54.773Z,1.92
2022-12-03T07:40:57.594Z,1.94
2022-12-03T07:42:00.458Z,1.90
2022-12-03T07:43:03.137Z,1.94
2022-12-03T07:44:12.414Z,1.89
2022-12-03T07:45:16.811Z,1.88
2022-12-03T07:46:19.514Z,1.79
2022-12-03T07:47:22.317Z,1.82
2022-12-03T07:48:25.938Z,1.79
2022-12-03T07:49:28.496Z,1.76
2022-12-03T07:50:31.140Z,1.72
2022-12-03T07:51:33.799Z,1.77
2022-12-03T07:52:36.409Z,1.77
2022-12-03T07:53:39.185Z,1.74
2022-12-03T07:54:41.810Z,1.74
2022-12-03T07:55:44.510Z,1.68
2022-12-03T07:56:49.880Z,1.74
2022-12-03T07:57:52.645Z,1.71
2022-12-03T07:58:55.367Z,1.78
2022-12-03T07:59:58.056Z,1.86
2022-12-03T08:01:00.854Z,1.84
2022-12-03T08:02:04.058Z,1.92
2022-12-03T08:03:06.862Z,1.74
2022-12-03T08:04:09.779Z,1.71
2022-12-03T08:05:12.580Z,1.73
2022-12-03T08:06:15.342Z,1.79
2022-12-03T08:07:18.300Z,1.90
2022-12-03T08:08:21.251Z,1.94
2022-12-03T08:09:23.965Z,1.95
2022-12-03T08:10:26.838Z,1.91
2022-12-03T08:11:29.827Z,1.87
2022-12-03T08:12:42.018Z,1.91
2022-12-03T08:13:45.037Z,2.03
2022-12-03T08:14:47.697Z,2.13
2022-12-03T08:15:50.438Z,2.01
2022-12-03T08:16:53.198Z,1.99
2022-12-03T08:17:59.002Z,2.07
2022-12-03T08:19:02.587Z,2.10
2022-12-03T08:20:20.278Z,2.11
2022-12-03T08:21:22.861Z,2.06
2022-12-03T08:22:26.567Z,2.05
2022-12-03T08:23:29.425Z,2.05
2022-12-03T08:24:32.188Z,2.07
2022-12-03T08:25:35.144Z,2.18
2022-12-03T08:26:37.843Z,2.19
2022-12-03T08:27:40.370Z,2.24
2022-12-03T08:28:43.304Z,2.27
2022-12-03T08:29:46.774Z,2.36
2022-12-03T08:31:01.071Z,2.41
2022-12-03T08:32:06.978Z,2.36
2022-12-03T08:33:33.819Z,2.37
2022-12-03T08:34:44.577Z,2.32
2022-12-03T08:35:51.164Z,2.32
2022-12-03T08:37:05.994Z,2.44
2022-12-03T08:38:13.143Z,2.41
2022-12-03T08:39:21.552Z,2.41
2022-12-03T08:40:47.007Z,2.59
2022-12-03T08:42:28.152Z,2.71
2022-12-03T08:43:36.817Z,2.93
2022-12-03T08:44:41.315Z,3.37
2022-12-03T08:45:44.929Z,3.61
2022-12-03T08:47:13.711Z,3.53
2022-12-03T08:48:18.806Z,3.57
2022-12-03T08:49:22.319Z,3.73
2022-12-03T08:50:29.540Z,3.60
2022-12-03T08:51:32.240Z,3.53
2022-12-03T08:52:35.320Z,3.62
2022-12-03T08:53:48.705Z,3.76
2022-12-03T08:54:54.121Z,3.38
2022-12-03T08:56:21.487Z,3.47
2022-12-03T08:57:33.201Z,3.39
2022-12-03T08:58:44.141Z,3.39
2022-12-03T08:59:46.563Z,3.57
2022-12-03T09:00:57.108Z,3.62
2022-12-03T09:01:59.913Z,3.56
2022-12-03T09:03:02.566Z,3.78
2022-12-03T09:04:22.736Z,3.79
2022-12-03T09:05:32.564Z,4.00
2022-12-03T09:06:35.345Z,4.05
2022-12-03T09:07:38.409Z,4.17
2022-12-03T09:08:41.177Z,4.21
2022-12-03T09:09:44.134Z,4.35
2022-12-03T09:10:46.984Z,4.31
2022-12-03T09:11:51.014Z,4.55
2022-12-03T09:12:53.857Z,4.70
2022-12-03T09:13:56.518Z,4.64
2022-12-03T09:14:59.125Z,4.64
2022-12-03T09:16:01.865Z,4.78
2022-12-03T09:17:04.818Z,4.62
2022-12-03T09:18:07.575Z,4.68
2022-12-03T09:19:10.381Z,4.52
2022-12-03T09:20:13.782Z,4.66
2022-12-03T09:21:16.435Z,4.70
2022-12-03T09:22:19.405Z,4.59
2022-12-03T09:23:22.103Z,4.17
2022-12-03T09:24:24.830Z,4.18
2022-12-03T09:25:27.651Z,4.53
2022-12-03T09:26:30.409Z,4.78
2022-12-03T09:27:33.496Z,4.41
2022-12-03T09:28:36.446Z,4.46
2022-12-03T09:29:39.184Z,4.62
2022-12-03T09:30:41.793Z,4.45
2022-12-03T09:31:44.533Z,4.56
2022-12-03T09:32:47.333Z,4.78
2022-12-03T09:33:50.051Z,4.73
2022-12-03T09:34:53.762Z,4.74
2022-12-03T09:35:56.597Z,4.70
2022-12-03T09:36:59.184Z,4.46
2022-12-03T09:38:01.904Z,4.56
2022-12-03T09:39:05.422Z,4.38
2022-12-03T09:40:09.981Z,4.15
2022-12-03T09:41:12.852Z,4.28
2022-12-03T09:42:15.761Z,4.30
2022-12-03T09:43:19.284Z,4.34
2022-12-03T09:44:22.200Z,4.33
2022-12-03T09:45:24.975Z,4.29
2022-12-03T09:46:27.899Z,4.19
2022-12-03T09:47:31.275Z,4.19
2022-12-03T09:48:34.261Z,4.09
2022-12-03T09:49:39.065Z,4.14
2022-12-03T09:50:42.993Z,4.25
2022-12-03T09:51:45.989Z,4.23
2022-12-03T09:52:50.206Z,4.25
2022-12-03T09:53:52.911Z,4.17
2022-12-03T09:54:55.748Z,4.31
2022-12-03T09:55:59.848Z,4.55
2022-12-03T09:57:04.460Z,4.55
2022-12-03T09:58:12.621Z,4.40
2022-12-03T09:59:16.595Z,4.67
2022-12-03T10:00:23.607Z,4.80
2022-12-03T10:01:30.168Z,4.68
2022-12-03T10:02:34.455Z,4.91
2022-12-03T10:03:43.324Z,4.94
2022-12-03T10:04:46.011Z,5.53
2022-12-03T10:05:48.703Z,6.20
2022-12-03T10:06:51.750Z,6.79
2022-12-03T10:08:01.208Z,7.49
2022-12-03T10:09:04.466Z,7.73
2022-12-03T10:10:14.421Z,8.01
2022-12-03T10:11:20.179Z,8.19
2022-12-03T10:12:25.062Z,8.11
2022-12-03T10:13:32.304Z,7.98
2022-12-03T10:14:34.961Z,7.75
2022-12-03T10:15:38.118Z,7.85
2022-12-03T10:16:41.644Z,8.21
2022-12-03T10:17:46.432Z,7.85
2022-12-03T10:18:52.238Z,7.63
2022-12-03T10:19:55.164Z,7.42
2022-12-03T10:20:58.140Z,7.11
2022-12-03T10:22:00.859Z,7.16
2022-12-03T10:23:03.429Z,7.49
2022-12-03T10:24:26.029Z,8.02
2022-12-03T10:25:28.701Z,8.43
2022-12-03T10:26:40.719Z,9.24
2022-12-03T10:27:44.004Z,9.33
2022-12-03T10:28:47.808Z,10.20
2022-12-03T10:30:01.455Z,10.47
2022-12-03T10:31:07.335Z,10.58
2022-12-03T10:32:12.267Z,10.68
2022-12-03T10:33:18.838Z,10.36
2022-12-03T10:34:33.484Z,9.94
2022-12-03T10:35:41.334Z,9.21
2022-12-03T10:36:44.082Z,9.11
2022-12-03T10:38:04.465Z,9.28
2022-12-03T10:39:17.165Z,9.05
2022-12-03T10:40:25.093Z,8.68
2022-12-03T10:41:28.625Z,8.20
2022-12-03T10:42:37.406Z,8.21
2022-12-03T10:43:39.967Z,8.39
2022-12-03T10:44:42.723Z,8.91
2022-12-03T10:46:12.357Z,9.30
2022-12-03T10:47:16.506Z,9.61
2022-12-03T10:48:27.844Z,9.53
2022-12-03T10:49:31.335Z,9.14
2022-12-03T10:50:34.882Z,8.80
2022-12-03T10:51:39.536Z,8.95
2022-12-03T10:52:42.350Z,8.92
2022-12-03T10:53:45.008Z,8.88
2022-12-03T10:54:47.782Z,8.17
2022-12-03T10:55:52.714Z,7.91
2022-12-03T10:56:56.247Z,8.34
2022-12-03T10:57:58.848Z,8.70
2022-12-03T10:59:01.533Z,8.79
2022-12-03T11:00:05.517Z,8.55
2022-12-03T11:01:19.155Z,9.08
2022-12-03T11:02:24.781Z,9.31
2022-12-03T11:03:30.625Z,9.19
2022-12-03T11:04:36.129Z,9.61
2022-12-03T11:05:38.781Z,9.68
2022-12-03T11:06:41.510Z,9.41
2022-12-03T11:07:45.021Z,9.17
2022-12-03T11:08:56.756Z,9.24
2022-12-03T11:10:02.798Z,9.10
2022-12-03T11:11:16.587Z,8.87
2022-12-03T11:12:26.007Z,8.63
2022-12-03T11:13:34.511Z,8.29
2022-12-03T11:14:49.038Z,8.16
2022-12-03T11:15:51.812Z,8.24
2022-12-03T11:16:54.935Z,8.04
2022-12-03T11:17:57.629Z,8.19
2022-12-03T11:19:02.459Z,8.25
2022-12-03T11:20:06.473Z,8.27
2022-12-03T11:21:14.149Z,8.66
2022-12-03T11:22:25.156Z,8.77
2022-12-03T11:23:45.975Z,8.91
2022-12-03T11:25:31.594Z,8.86
2022-12-03T11:26:37.196Z,8.74
2022-12-03T11:27:40.325Z,9.56
2022-12-03T11:28:45.920Z,9.84
2022-12-03T11:30:00.292Z,10.32
2022-12-03T11:31:11.712Z,11.25
2022-12-03T11:33:00.581Z,11.08
2022-12-03T11:34:18.331Z,10.79
2022-12-03T11:35:23.710Z,11.42
2022-12-03T11:36:47.678Z,11.41
2022-12-03T11:37:49.706Z,11.84
2022-12-03T11:38:54.237Z,10.75
2022-12-03T11:40:01.533Z,11.08
2022-12-03T11:41:14.641Z,11.95
2022-12-03T11:42:26.268Z,12.39
2022-12-03T11:43:53.925Z,12.67
2022-12-03T11:45:06.464Z,12.27
2022-12-03T11:46:10.345Z,11.86
2022-12-03T11:47:16.550Z,12.44
2022-12-03T11:48:20.437Z,11.33
2022-12-03T11:49:25.815Z,12.40
2022-12-03T11:50:28.512Z,12.75
2022-12-03T11:51:31.615Z,12.26
2022-12-03T11:52:44.307Z,11.50
2022-12-03T11:53:47.251Z,12.35
2022-12-03T11:54:54.051Z,12.11
2022-12-03T11:56:11.284Z,12.80
2022-12-03T11:57:31.125Z,11.81
2022-12-03T11:58:38.781Z,12.57
2022-12-03T12:00:16.449Z,13.44
2022-12-03T12:01:39.254Z,12.75
2022-12-03T12:02:42.281Z,12.35
2022-12-03T12:03:47.866Z,12.88
2022-12-03T12:04:50.793Z,12.16
2022-12-03T12:06:03.442Z,12.70
2022-12-03T12:07:06.351Z,13.05
2022-12-03T12:08:18.959Z,13.25
2022-12-03T12:09:51.317Z,13.31
2022-12-03T12:10:54.127Z,13.44
2022-12-03T12:11:56.775Z,12.89
2022-12-03T12:12:59.704Z,12.82
2022-12-03T12:14:11.091Z,12.83
2022-12-03T12:15:38.570Z,12.56
2022-12-03T12:16:51.926Z,12.30
2022-12-03T12:17:54.612Z,12.45
2022-12-03T12:18:57.304Z,12.32
2022-12-03T12:20:27.968Z,12.37
2022-12-03T12:21:48.297Z,12.42
2022-12-03T12:22:53.030Z,11.97
2022-12-03T12:23:55.881Z,12.15
2022-12-03T12:25:05.477Z,11.67
2022-12-03T12:26:08.116Z,11.05
2022-12-03T12:27:12.900Z,10.76
2022-12-03T12:28:15.852Z,10.74
2022-12-03T12:29:18.791Z,10.40
2022-12-03T12:30:23.401Z,10.39
2022-12-03T12:31:26.121Z,10.17
2022-12-03T12:32:34.372Z,9.87
2022-12-03T12:33:36.940Z,9.93
2022-12-03T12:34:41.697Z,9.46
2022-12-03T12:35:44.492Z,9.36
2022-12-03T12:36:47.374Z,9.45
2022-12-03T12:37:59.026Z,8.87
2022-12-03T12:39:15.818Z,8.83
2022-12-03T12:40:19.493Z,8.26
2022-12-03T12:41:22.167Z,8.23
2022-12-03T12:42:30.251Z,8.03
2022-12-03T12:43:34.002Z,7.44
2022-12-03T12:44:36.777Z,7.58
2022-12-03T12:45:42.291Z,7.88
2022-12-03T12:46:53.988Z,7.96
2022-12-03T12:48:07.525Z,7.18
2022-12-03T12:49:15.194Z,7.00
2022-12-03T12:50:19.444Z,7.11
2022-12-03T12:51:22.257Z,7.24
2022-12-03T12:52:25.326Z,7.12
2022-12-03T12:53:34.067Z,6.89
2022-12-03T12:54:38.089Z,6.93
2022-12-03T12:55:41.150Z,7.10
2022-12-03T12:56:46.003Z,7.11
2022-12-03T12:57:49.120Z,6.73
2022-12-03T12:58:52.475Z,6.80
2022-12-03T12:59:55.829Z,6.79
2022-12-03T13:01:01.117Z,6.57
2022-12-03T13:02:28.914Z,6.70
2022-12-03T13:03:37.054Z,6.78
2022-12-03T13:04:40.380Z,6.68
2022-12-03T13:05:47.652Z,6.56
2022-12-03T13:06:53.536Z,6.49
2022-12-03T13:07:56.366Z,6.29
2022-12-03T13:09:01.551Z,6.20
2022-12-03T13:10:27.598Z,6.32
2022-12-03T13:11:42.410Z,6.32
2022-12-03T13:12:45.029Z,6.46
2022-12-03T13:13:47.750Z,6.43
2022-12-03T13:14:52.372Z,6.47
2022-12-03T13:16:16.342Z,6.15
2022-12-03T13:17:26.455Z,6.23
2022-12-03T13:18:38.731Z,6.18
2022-12-03T13:20:01.922Z,6.15
2022-12-03T13:21:22.235Z,6.00
2022-12-03T13:22:27.511Z,6.00
2022-12-03T13:23:35.329Z,6.03
2022-12-03T13:24:47.981Z,5.92
2022-12-03T13:26:04.321Z,5.93
2022-12-03T13:27:17.635Z,6.00
2022-12-03T13:28:20.468Z,5.91
2022-12-03T13:29:23.989Z,6.01
2022-12-03T13:30:28.999Z,6.13
2022-12-03T13:31:35.827Z,5.98
2022-12-03T13:32:42.978Z,5.87
2022-12-03T13:33:45.591Z,5.63
2022-12-03T13:34:50.639Z,5.61
2022-12-03T13:35:55.736Z,5.76
2022-12-03T13:37:00.925Z,5.80
2022-12-03T13:38:13.744Z,5.74
2022-12-03T13:39:27.197Z,5.69
2022-12-03T13:40:33.104Z,5.63
2022-12-03T13:41:54.678Z,5.86
2022-12-03T13:42:57.893Z,5.76
2022-12-03T13:44:00.994Z,5.68
2022-12-03T13:45:07.105Z,5.73
2022-12-03T13:46:10.406Z,5.89
2022-12-03T13:47:20.856Z,5.70
2022-12-03T13:48:31.316Z,5.55
2022-12-03T13:49:34.906Z,5.65
2022-12-03T13:50:44.080Z,5.52
2022-12-03T13:51:47.471Z,5.59
2022-12-03T13:52:51.805Z,5.73
2022-12-03T13:53:54.990Z,5.77
2022-12-03T13:54:57.692Z,5.78
2022-12-03T13:56:28.394Z,5.73
2022-12-03T13:57:31.252Z,5.46
2022-12-03T13:58:33.984Z,5.43
2022-12-03T13:59:36.686Z,5.31
2022-12-03T14:00:39.758Z,5.43
2022-12-03T14:01:43.379Z,5.50
2022-12-03T14:02:46.160Z,5.63
2022-12-03T14:03:49.577Z,5.56
2022-12-03T14:04:56.804Z,5.43
2022-12-03T14:06:04.231Z,5.44
2022-12-03T14:07:07.051Z,5.44
2022-12-03T14:08:09.673Z,5.44
2022-12-03T14:09:12.405Z,5.36
2022-12-03T14:10:16.685Z,5.50
2022-12-03T14:11:38.005Z,5.46
2022-12-03T14:12:40.679Z,5.43
2022-12-03T14:13:43.221Z,5.29
2022-12-03T14:14:45.972Z,5.21
2022-12-03T14:15:48.668Z,5.22
2022-12-03T14:16:55.349Z,5.17
2022-12-03T14:18:01.038Z,5.14
2022-12-03T14:19:03.984Z,5.09
2022-12-03T14:20:08.381Z,5.22
2022-12-03T14:21:11.036Z,5.16
2022-12-03T14:22:13.867Z,5.31
2022-12-03T14:23:16.459Z,5.15
2022-12-03T14:24:19.072Z,5.17
2022-12-03T14:25:21.641Z,5.27
2022-12-03T14:26:24.385Z,5.19
2022-12-03T14:27:27.649Z,5.20
2022-12-03T14:28:30.275Z,5.20
2022-12-03T14:29:32.807Z,5.18
2022-12-03T14:30:36.279Z,5.06